BHA weather

Bahía Airstrip
Caborca, Sonora, Mexico

Public forecast

Using degrees Celsius for public forecast. Weather courtesy of forecast.io.

Closest aviation weather report (METAR) to Bahía Airstrip

Closest report is (Old) Puerto Peñasco Airport, 53.3 nm (98.7 km) NNW. Retrieved UTC (0 seconds ago):

Closest aviation forecast (TAF) to Bahía Airstrip

Closest forecast is Nogales International Airport, 120.2 nm (222.6 km) ENE. Retrieved 2020/06/01 18:36 UTC (0 seconds ago):

TAF KOLS 011733Z 0118/0218 VRB04KT P6SM SKC FM012000 19006KT P6SM SCT090 FM012200 22010G17KT P6SM VCSH SCT080 BKN130 FM020200 15006KT P6SM SCT080 SCT130 BKN200 FM020400 12004KT P6SM SCT130 BKN250 FM020700 VRB03KT P6SM SCT250